VVPB/HUI METAR and TAF weather

Enter ICAO airport designator
Station Type Date Time Source
VVPB METAR 2019/06/18 05:00 UTC NOAA

VVPB 180500Z 36006KT 9999 FEW020 SCT050 36/25 Q1006 NOSIG


Station Type Date Time Source
VVPB Decoded METAR 2019/06/18 05:00 UTC NOAA

Hue, Vietnam (VVPB) 16-24N 107-41E 17M
Jun 18, 2019 - 01:00 AM EDT / 2019.06.18 0500 UTC
Wind: from the N (360 degrees) at 7 MPH (6 KT):0
Visibility: greater than 7 mile(s):0
Sky conditions: partly cloudy
Temperature: 96 F (36 C)
Heat index: 109.9 F (43.3 C):1
Dew Point: 77 F (25 C)
Relative Humidity: 53%
Pressure (altimeter): 29.71 in. Hg (1006 hPa)
ob: VVPB 180500Z 36006KT 9999 FEW020 SCT050 36/25 Q1006 NOSIG
cycle: 5

Station Type Date Time Source
VVPB TAF 2019/06/17 18:00 UTC NOAA

TAF VVPB 171700Z 1718/1818 24004KT 9999 FEW017 SCT060
BECMG 1805/1806 06010KT PROB40
TEMPO 1808/1812 4000 TSRA SCT013 FEW017CB BKN050
BECMG 1812/1814 23004KT

Example: see airport list